Big Bear Station Historical Data
Daily Summary for July 14, 2019 Units:  English    Metric   Both
Next Day »
Daily Weekly Monthly Yearly Custom
  High: Low: Average:
Temperature: 88 °F 51.4 °F 68.3 °F
Dew Point: 48.4 °F 25.2 °F 37.7 °F
Humidity: 78% 16% 38%
Wind Speed: 7.3mph 0mph 0.3mph
Wind Gust: -999mph - -
Wind- - NW
Pressure: 23.69 in 23.64 in -
Precipitation: 0 in    
Historical Graphs
 
 
Tabular Data for July 14, 2019
Time Temperature Dew Point Pressure Wind Wind Speed Wind Gust Humidity Rainfall Rate (Hourly)
00:05 60.1 °F 41.9 °F 23.64 in Calm   -999 mph 51% 0.00 in
00:21 59.9 °F 39.6 °F 23.64 in Calm   -999 mph 47% 0.00 in
00:36 59.5 °F 39.3 °F 23.64 in Calm   -999 mph 47% 0.00 in
00:51 59 °F 39.9 °F 23.64 in Calm   -999 mph 49% 0.00 in
01:06 58.3 °F 37.6 °F 23.64 in Calm   -999 mph 46% 0.00 in
01:21 57.6 °F 37.5 °F 23.64 in Calm   -999 mph 47% 0.00 in
01:37 56.8 °F 36.8 °F 23.64 in Calm   -999 mph 47% 0.00 in
01:52 56.7 °F 36.1 °F 23.64 in Calm   -999 mph 46% 0.00 in
02:07 56.5 °F 36.5 °F 23.64 in Calm   -999 mph 47% 0.00 in
02:22 55.9 °F 35.4 °F 23.64 in Calm   -999 mph 46% 0.00 in
02:37 55.2 °F 35.3 °F 23.64 in Calm   -999 mph 47% 0.00 in
02:53 54.9 °F 36.1 °F 23.64 in Calm   -999 mph 49% 0.00 in
03:08 55 °F 35.7 °F 23.64 in Calm   -999 mph 48% 0.00 in
03:23 54.5 °F 38.2 °F 23.64 in Calm   -999 mph 54% 0.00 in
03:38 54.3 °F 40.3 °F 23.64 in Calm   -999 mph 59% 0.00 in
03:54 54.1 °F 42.2 °F 23.64 in Calm   -999 mph 64% 0.00 in
04:09 53.4 °F 40.3 °F 23.64 in Calm   -999 mph 61% 0.00 in
04:24 53.1 °F 37.8 °F 23.64 in Calm   -999 mph 56% 0.00 in
04:39 52.9 °F 37.6 °F 23.64 in Calm   -999 mph 56% 0.00 in
04:54 52.7 °F 37 °F 23.65 in Calm   -999 mph 55% 0.00 in
05:10 52.3 °F 40.1 °F 23.65 in Calm   -999 mph 63% 0.00 in
05:25 52.3 °F 42.4 °F 23.65 in Calm   -999 mph 69% 0.00 in
05:40 51.8 °F 43.4 °F 23.65 in Calm   -999 mph 73% 0.00 in
05:55 51.6 °F 43.2 °F 23.66 in Calm   -999 mph 73% 0.00 in
06:10 51.6 °F 42.5 °F 23.66 in Calm   -999 mph 71% 0.00 in
06:26 51.4 °F 43 °F 23.66 in Calm   -999 mph 73% 0.00 in
06:41 51.6 °F 43.9 °F 23.67 in Calm   -999 mph 75% 0.00 in
06:56 52 °F 45 °F 23.66 in Calm   -999 mph 77% 0.00 in
07:11 52.3 °F 45.6 °F 23.67 in Calm   -999 mph 78% 0.00 in
07:26 53.4 °F 45.7 °F 23.67 in Calm   -999 mph 75% 0.00 in
07:42 54 °F 45.5 °F 23.67 in Calm   -999 mph 73% 0.00 in
07:57 54.9 °F 46.4 °F 23.67 in Calm   -999 mph 73% 0.00 in
08:12 56.1 °F 47.9 °F 23.68 in Calm   -999 mph 74% 0.00 in
08:27 57.7 °F 48.4 °F 23.68 in Calm   -999 mph 71% 0.00 in
08:43 62.1 °F 44.3 °F 23.68 in Calm   -999 mph 52% 0.00 in
08:58 65.1 °F 40.8 °F 23.68 in Calm   -999 mph 41% 0.00 in
09:13 67.1 °F 35.4 °F 23.68 in Calm   -999 mph 31% 0.00 in
09:28 71.1 °F 30.3 °F 23.68 in Calm   -999 mph 22% 0.00 in
09:43 73 °F 34.1 °F 23.68 in Calm   -999 mph 24% 0.00 in
09:59 75.2 °F 34.9 °F 23.68 in Calm   -999 mph 23% 0.00 in
10:14 76.5 °F 33.7 °F 23.68 in Calm   -999 mph 21% 0.00 in
10:29 76.8 °F 33.9 °F 23.68 in Calm   -999 mph 21% 0.00 in
10:44 77 °F 31.6 °F 23.68 in Calm   -999 mph 19% 0.00 in
10:59 77.5 °F 34.5 °F 23.68 in Calm   -999 mph 21% 0.00 in
11:15 78.3 °F 36.3 °F 23.69 in NNW 5.8 mph -999 mph 22% 0.00 in
11:30 79.7 °F 39.7 °F 23.69 in Calm   -999 mph 24% 0.00 in
11:46 81.5 °F 39 °F 23.69 in Calm   -999 mph 22% 0.00 in
12:01 83.3 °F 36.7 °F 23.69 in NW 1.1 mph -999 mph 19% 0.00 in
12:16 83.1 °F 37.9 °F 23.69 in West 1.1 mph -999 mph 20% 0.00 in
12:31 84.4 °F 39 °F 23.68 in Calm   -999 mph 20% 0.00 in
12:47 84.7 °F 36.5 °F 23.68 in Calm   -999 mph 18% 0.00 in
13:02 86 °F 37.6 °F 23.68 in Calm   -999 mph 18% 0.00 in
13:17 85.8 °F 40.1 °F 23.68 in Calm   -999 mph 20% 0.00 in
13:33 85.3 °F 38.4 °F 23.68 in NNW 2.7 mph -999 mph 19% 0.00 in
13:48 85.6 °F 37.2 °F 23.68 in NW 3.7 mph -999 mph 18% 0.00 in
14:03 85.6 °F 38.6 °F 23.68 in Calm   -999 mph 19% 0.00 in
14:18 86.2 °F 37.7 °F 23.68 in Calm   -999 mph 18% 0.00 in
14:33 87.4 °F 35.7 °F 23.68 in Calm   -999 mph 16% 0.00 in
14:49 88 °F 36.2 °F 23.68 in WNW 1.1 mph -999 mph 16% 0.00 in
15:04 86 °F 34.6 °F 23.67 in NW 7.3 mph -999 mph 16% 0.00 in
15:19 86.2 °F 36.3 °F 23.67 in Calm   -999 mph 17% 0.00 in
15:34 85.3 °F 35.6 °F 23.66 in Calm   -999 mph 17% 0.00 in
15:50 84.6 °F 35 °F 23.66 in Calm   -999 mph 17% 0.00 in
16:05 85.3 °F 37 °F 23.66 in Calm   -999 mph 18% 0.00 in
16:20 85.1 °F 38.2 °F 23.66 in Calm   -999 mph 19% 0.00 in
16:35 83.3 °F 38.1 °F 23.66 in Calm   -999 mph 20% 0.00 in
16:51 84.2 °F 34.7 °F 23.65 in Calm   -999 mph 17% 0.00 in
17:06 85.8 °F 37.4 °F 23.65 in Calm   -999 mph 18% 0.00 in
17:21 86.2 °F 36.3 °F 23.65 in NW 5.3 mph -999 mph 17% 0.00 in
17:36 85.6 °F 38.6 °F 23.65 in Calm   -999 mph 19% 0.00 in
17:52 85.1 °F 38.2 °F 23.65 in Calm   -999 mph 19% 0.00 in
18:07 83.8 °F 39.7 °F 23.65 in Calm   -999 mph 21% 0.00 in
18:22 84 °F 38.6 °F 23.65 in Calm   -999 mph 20% 0.00 in
18:37 84.4 °F 39 °F 23.64 in Calm   -999 mph 20% 0.00 in
18:52 81.5 °F 39 °F 23.65 in Calm   -999 mph 22% 0.00 in
19:08 82.9 °F 39 °F 23.65 in NNW 1.1 mph -999 mph 21% 0.00 in
19:23 78.4 °F 40.7 °F 23.65 in Calm   -999 mph 26% 0.00 in
19:38 75.4 °F 39.1 °F 23.65 in Calm   -999 mph 27% 0.00 in
19:53 72.3 °F 38.3 °F 23.65 in Calm   -999 mph 29% 0.00 in
20:08 69.8 °F 37.8 °F 23.65 in Calm   -999 mph 31% 0.00 in
20:24 67.5 °F 35.8 °F 23.65 in Calm   -999 mph 31% 0.00 in
20:39 66.2 °F 31.2 °F 23.66 in Calm   -999 mph 27% 0.00 in
20:54 64.6 °F 29.9 °F 23.66 in Calm   -999 mph 27% 0.00 in
21:09 63 °F 30.2 °F 23.66 in Calm   -999 mph 29% 0.00 in
21:24 62.1 °F 28.6 °F 23.67 in Calm   -999 mph 28% 0.00 in
21:40 61.2 °F 29.5 °F 23.68 in Calm   -999 mph 30% 0.00 in
21:55 60.3 °F 30.3 °F 23.68 in Calm   -999 mph 32% 0.00 in
22:10 59.2 °F 25.2 °F 23.68 in Calm   -999 mph 27% 0.00 in
22:25 58.5 °F 30.9 °F 23.68 in Calm   -999 mph 35% 0.00 in
22:40 58.3 °F 32.1 °F 23.68 in Calm   -999 mph 37% 0.00 in
22:56 57.7 °F 32.9 °F 23.68 in Calm   -999 mph 39% 0.00 in
23:11 57.2 °F 36.6 °F 23.67 in Calm   -999 mph 46% 0.00 in
23:26 57 °F 37.5 °F 23.67 in Calm   -999 mph 48% 0.00 in
23:41 56.3 °F 37.4 °F 23.67 in Calm   -999 mph 49% 0.00 in
23:56 55.9 °F 39 °F 23.67 in Calm   -999 mph 53% 0.00 in
Big Bear CA Weather